createdAt,value
2023-03-08T00:00:24.468Z,1.09
2023-03-08T00:01:26.734Z,1.10
2023-03-08T00:02:28.943Z,1.08
2023-03-08T00:03:31.170Z,1.08
2023-03-08T00:04:35.013Z,1.07
2023-03-08T00:05:38.394Z,1.07
2023-03-08T00:06:41.707Z,1.07
2023-03-08T00:07:44.157Z,1.06
2023-03-08T00:08:48.564Z,1.07
2023-03-08T00:09:51.040Z,1.06
2023-03-08T00:10:53.343Z,1.08
2023-03-08T00:11:55.735Z,1.05
2023-03-08T00:12:58.024Z,1.05
2023-03-08T00:14:01.773Z,1.04
2023-03-08T00:15:04.277Z,1.04
2023-03-08T00:16:09.421Z,1.05
2023-03-08T00:17:13.093Z,1.04
2023-03-08T00:18:15.424Z,1.04
2023-03-08T00:19:17.602Z,1.03
2023-03-08T00:20:19.784Z,1.03
2023-03-08T00:21:22.097Z,1.04
2023-03-08T00:22:24.328Z,1.02
2023-03-08T00:23:26.751Z,1.02
2023-03-08T00:24:29.796Z,1.03
2023-03-08T00:25:32.017Z,1.02
2023-03-08T00:26:34.385Z,1.02
2023-03-08T00:27:37.512Z,1.02
2023-03-08T00:28:39.813Z,1.03
2023-03-08T00:29:42.090Z,1.02
2023-03-08T00:30:45.507Z,1.01
2023-03-08T00:31:47.854Z,1.00
2023-03-08T00:32:50.169Z,1.02
2023-03-08T00:33:54.199Z,1.01
2023-03-08T00:34:56.522Z,1.00
2023-03-08T00:36:02.918Z,0.99
2023-03-08T00:37:05.081Z,1.00
2023-03-08T00:38:07.337Z,1.00
2023-03-08T00:39:11.677Z,1.00
2023-03-08T00:40:14.055Z,1.00
2023-03-08T00:41:17.713Z,0.99
2023-03-08T00:42:24.118Z,0.99
2023-03-08T00:43:27.318Z,0.99
2023-03-08T00:44:30.460Z,1.00
2023-03-08T00:45:32.982Z,0.99
2023-03-08T00:46:35.350Z,0.99
2023-03-08T00:47:43.233Z,0.99
2023-03-08T00:48:45.598Z,0.99
2023-03-08T00:49:47.780Z,0.99
2023-03-08T00:50:50.154Z,0.98
2023-03-08T00:51:52.270Z,0.97
2023-03-08T00:52:54.455Z,0.98
2023-03-08T00:53:56.713Z,0.97
2023-03-08T00:54:58.915Z,0.97
2023-03-08T00:56:01.541Z,0.97
2023-03-08T00:57:06.251Z,0.95
2023-03-08T00:58:08.421Z,0.95
2023-03-08T00:59:11.142Z,0.94
2023-03-08T01:00:15.605Z,0.93
2023-03-08T01:01:19.392Z,0.95
2023-03-08T01:02:23.978Z,0.93
2023-03-08T01:03:27.847Z,0.93
2023-03-08T01:04:33.431Z,0.93
2023-03-08T01:05:40.875Z,0.94
2023-03-08T01:06:44.461Z,0.93
2023-03-08T01:07:46.824Z,0.94
2023-03-08T01:08:49.041Z,0.92
2023-03-08T01:09:56.048Z,0.92
2023-03-08T01:11:00.019Z,0.92
2023-03-08T01:12:02.701Z,0.92
2023-03-08T01:13:06.826Z,0.92
2023-03-08T01:14:09.268Z,0.92
2023-03-08T01:15:11.761Z,0.90
2023-03-08T01:16:17.412Z,0.90
2023-03-08T01:17:19.619Z,0.92
2023-03-08T01:18:21.827Z,0.90
2023-03-08T01:19:24.008Z,0.90
2023-03-08T01:20:26.316Z,0.90
2023-03-08T01:21:30.248Z,0.91
2023-03-08T01:22:33.678Z,0.90
2023-03-08T01:23:36.241Z,0.90
2023-03-08T01:24:38.471Z,0.90
2023-03-08T01:25:40.862Z,0.90
2023-03-08T01:26:43.076Z,0.90
2023-03-08T01:27:46.208Z,0.89
2023-03-08T01:28:49.893Z,0.90
2023-03-08T01:29:52.157Z,0.89
2023-03-08T01:30:54.466Z,0.90
2023-03-08T01:31:57.505Z,0.90
2023-03-08T01:32:59.733Z,0.88
2023-03-08T01:34:02.109Z,0.89
2023-03-08T01:35:05.600Z,0.87
2023-03-08T01:36:10.576Z,0.88
2023-03-08T01:37:12.758Z,0.89
2023-03-08T01:38:16.960Z,0.87
2023-03-08T01:39:19.153Z,0.88
2023-03-08T01:40:21.835Z,0.88
2023-03-08T01:41:27.919Z,0.87
2023-03-08T01:42:31.811Z,0.86
2023-03-08T01:43:39.109Z,0.86
2023-03-08T01:44:51.244Z,0.88
2023-03-08T01:46:24.713Z,0.86
2023-03-08T01:47:32.671Z,0.85
2023-03-08T01:49:07.800Z,0.85
2023-03-08T01:50:13.278Z,0.84
2023-03-08T01:51:24.440Z,0.84
2023-03-08T01:52:32.214Z,0.83
2023-03-08T01:53:38.000Z,0.82
2023-03-08T01:54:48.049Z,0.80
2023-03-08T01:55:50.377Z,0.79
2023-03-08T01:56:55.641Z,0.80
2023-03-08T01:57:57.867Z,0.78
2023-03-08T01:59:00.668Z,0.76
2023-03-08T02:00:15.334Z,0.77
2023-03-08T02:01:20.579Z,0.76
2023-03-08T02:02:32.749Z,0.76
2023-03-08T02:03:34.893Z,0.75
2023-03-08T02:04:41.662Z,0.75
2023-03-08T02:05:49.312Z,0.74
2023-03-08T02:06:56.562Z,0.73
2023-03-08T02:08:00.135Z,0.73
2023-03-08T02:09:06.932Z,0.71
2023-03-08T02:10:12.483Z,0.71
2023-03-08T02:11:16.658Z,0.68
2023-03-08T02:12:19.962Z,0.68
2023-03-08T02:13:22.237Z,0.68
2023-03-08T02:14:25.683Z,0.68
2023-03-08T02:15:29.077Z,0.66
2023-03-08T02:16:33.819Z,0.66
2023-03-08T02:17:40.534Z,0.66
2023-03-08T02:18:56.935Z,0.66
2023-03-08T02:20:08.347Z,0.66
2023-03-08T02:21:10.538Z,0.64
2023-03-08T02:22:15.296Z,0.64
2023-03-08T02:23:23.946Z,0.65
2023-03-08T02:24:26.294Z,0.64
2023-03-08T02:25:28.594Z,0.63
2023-03-08T02:26:30.849Z,0.62
2023-03-08T02:27:33.107Z,0.63
2023-03-08T02:28:36.547Z,0.62
2023-03-08T02:29:39.316Z,0.61
2023-03-08T02:30:41.517Z,0.61
2023-03-08T02:31:43.690Z,0.60
2023-03-08T02:32:46.041Z,0.62
2023-03-08T02:33:48.386Z,0.61
2023-03-08T02:34:50.620Z,0.62
2023-03-08T02:35:53.327Z,0.61
2023-03-08T02:36:55.627Z,0.60
2023-03-08T02:37:57.774Z,0.62
2023-03-08T02:39:00.028Z,0.61
2023-03-08T02:40:04.317Z,0.61
2023-03-08T02:41:06.882Z,0.61
2023-03-08T02:42:10.337Z,0.61
2023-03-08T02:43:12.839Z,0.60
2023-03-08T02:44:15.313Z,0.61
2023-03-08T02:45:18.213Z,0.61
2023-03-08T02:46:20.650Z,0.60
2023-03-08T02:47:23.002Z,0.61
2023-03-08T02:48:25.225Z,0.61
2023-03-08T02:49:27.344Z,0.60
2023-03-08T02:50:30.313Z,0.61
2023-03-08T02:51:32.523Z,0.63
2023-03-08T02:52:35.855Z,0.63
2023-03-08T02:53:38.917Z,0.61
2023-03-08T02:54:41.180Z,0.61
2023-03-08T02:55:44.361Z,0.63
2023-03-08T02:56:48.097Z,0.63
2023-03-08T02:57:52.373Z,0.63
2023-03-08T02:58:55.454Z,0.63
2023-03-08T02:59:59.043Z,0.63
2023-03-08T03:01:03.471Z,0.64
2023-03-08T03:02:07.220Z,0.63
2023-03-08T03:03:10.570Z,0.64
2023-03-08T03:04:14.367Z,0.64
2023-03-08T03:05:16.659Z,0.63
2023-03-08T03:06:20.623Z,0.63
2023-03-08T03:07:26.635Z,0.64
2023-03-08T03:08:30.792Z,0.63
2023-03-08T03:09:36.000Z,0.63
2023-03-08T03:10:42.162Z,0.65
2023-03-08T03:11:44.621Z,0.64
2023-03-08T03:12:47.249Z,0.64
2023-03-08T03:13:58.596Z,0.64
2023-03-08T03:15:07.756Z,0.63
2023-03-08T03:16:18.259Z,0.64
2023-03-08T03:17:20.496Z,0.64
2023-03-08T03:18:22.753Z,0.63
2023-03-08T03:19:25.085Z,0.63
2023-03-08T03:20:27.269Z,0.63
2023-03-08T03:21:29.583Z,0.64
2023-03-08T03:22:33.089Z,0.63
2023-03-08T03:23:35.624Z,0.63
2023-03-08T03:24:38.202Z,0.63
2023-03-08T03:25:42.551Z,0.63
2023-03-08T03:26:52.372Z,0.63
2023-03-08T03:27:56.765Z,0.64
2023-03-08T03:29:01.422Z,0.63
2023-03-08T03:30:11.931Z,0.61
2023-03-08T03:31:17.935Z,0.62
2023-03-08T03:32:20.751Z,0.63
2023-03-08T03:33:24.136Z,0.61
2023-03-08T03:34:26.503Z,0.60
2023-03-08T03:35:28.854Z,0.61
2023-03-08T03:36:31.258Z,0.60
2023-03-08T03:37:35.630Z,0.60
2023-03-08T03:38:38.516Z,0.61
2023-03-08T03:39:40.744Z,0.60
2023-03-08T03:40:45.718Z,0.60
2023-03-08T03:41:47.925Z,0.61
2023-03-08T03:42:50.505Z,0.61
2023-03-08T03:43:53.546Z,0.61
2023-03-08T03:44:55.774Z,0.61
2023-03-08T03:45:59.849Z,0.62
2023-03-08T03:47:03.754Z,0.63
2023-03-08T03:48:06.303Z,0.62
2023-03-08T03:49:09.010Z,0.63
2023-03-08T03:50:14.611Z,0.62
2023-03-08T03:51:24.811Z,0.64
2023-03-08T03:52:36.854Z,0.63
2023-03-08T03:53:41.035Z,0.64
2023-03-08T03:54:45.820Z,0.64
2023-03-08T03:55:48.025Z,0.62
2023-03-08T03:56:50.414Z,0.62
2023-03-08T03:57:56.960Z,0.63
2023-03-08T03:58:59.748Z,0.62
2023-03-08T04:00:06.319Z,0.61
2023-03-08T04:01:27.543Z,0.61
2023-03-08T04:02:35.826Z,0.62
2023-03-08T04:03:39.694Z,0.63
2023-03-08T04:04:44.242Z,0.61
2023-03-08T04:05:49.045Z,0.61
2023-03-08T04:06:51.651Z,0.63
2023-03-08T04:07:58.454Z,0.61
2023-03-08T04:09:07.289Z,0.61
2023-03-08T04:10:12.824Z,0.61
2023-03-08T04:11:18.294Z,0.62
2023-03-08T04:12:23.245Z,0.61
2023-03-08T04:13:25.941Z,0.61
2023-03-08T04:14:30.500Z,0.60
2023-03-08T04:15:32.983Z,0.62
2023-03-08T04:16:40.107Z,0.63
2023-03-08T04:17:48.489Z,0.61
2023-03-08T04:18:56.397Z,0.62
2023-03-08T04:19:59.603Z,0.63
2023-03-08T04:21:09.094Z,0.63
2023-03-08T04:22:11.323Z,0.64
2023-03-08T04:23:21.403Z,0.63
2023-03-08T04:24:24.258Z,0.63
2023-03-08T04:25:29.981Z,0.63
2023-03-08T04:26:35.878Z,0.64
2023-03-08T04:27:38.036Z,0.63
2023-03-08T04:28:41.849Z,0.63
2023-03-08T04:29:44.028Z,0.64
2023-03-08T04:30:46.808Z,0.65
2023-03-08T04:31:51.176Z,0.64
2023-03-08T04:32:55.362Z,0.66
2023-03-08T04:34:05.389Z,0.65
2023-03-08T04:35:08.029Z,0.65
2023-03-08T04:36:13.191Z,0.66
2023-03-08T04:37:16.515Z,0.65
2023-03-08T04:38:22.427Z,0.65
2023-03-08T04:39:27.474Z,0.65
2023-03-08T04:40:30.234Z,0.66
2023-03-08T04:41:36.176Z,0.66
2023-03-08T04:42:58.192Z,0.67
2023-03-08T04:44:09.889Z,0.66
2023-03-08T04:45:16.508Z,0.67
2023-03-08T04:46:22.566Z,0.66
2023-03-08T04:47:25.163Z,0.66
2023-03-08T04:48:27.910Z,0.67
2023-03-08T04:49:30.098Z,0.66
2023-03-08T04:50:36.217Z,0.67
2023-03-08T04:51:39.793Z,0.66
2023-03-08T04:52:43.840Z,0.66
2023-03-08T04:53:47.397Z,0.68
2023-03-08T04:54:50.373Z,0.66
2023-03-08T04:55:57.369Z,0.66
2023-03-08T04:57:00.880Z,0.67
2023-03-08T04:58:04.140Z,0.67
2023-03-08T04:59:08.015Z,0.67
2023-03-08T05:00:11.180Z,0.66
2023-03-08T05:01:23.455Z,0.67
2023-03-08T05:02:27.314Z,0.67
2023-03-08T05:03:29.550Z,0.68
2023-03-08T05:04:32.836Z,0.68
2023-03-08T05:05:35.613Z,0.67
2023-03-08T05:06:38.223Z,0.69
2023-03-08T05:07:40.782Z,0.66
2023-03-08T05:08:43.073Z,0.68
2023-03-08T05:09:46.635Z,0.68
2023-03-08T05:11:01.044Z,0.67
2023-03-08T05:12:06.521Z,0.68
2023-03-08T05:13:32.371Z,0.68
2023-03-08T05:14:34.578Z,0.67
2023-03-08T05:15:39.577Z,0.67
2023-03-08T05:16:41.848Z,0.66
2023-03-08T05:17:44.801Z,0.67
2023-03-08T05:18:48.389Z,0.68
2023-03-08T05:19:52.642Z,0.67
2023-03-08T05:21:01.518Z,0.68
2023-03-08T05:22:05.827Z,0.66
2023-03-08T05:23:10.754Z,0.67
2023-03-08T05:24:18.702Z,0.67
2023-03-08T05:25:21.031Z,0.67
2023-03-08T05:26:24.868Z,0.67
2023-03-08T05:27:27.467Z,0.68
2023-03-08T05:28:33.977Z,0.68
2023-03-08T05:29:37.466Z,0.68
2023-03-08T05:30:41.128Z,0.67
2023-03-08T05:31:45.571Z,0.67
2023-03-08T05:32:49.599Z,0.67
2023-03-08T05:33:52.221Z,0.67
2023-03-08T05:35:01.197Z,0.67
2023-03-08T05:36:10.674Z,0.66
2023-03-08T05:37:13.938Z,0.66
2023-03-08T05:38:18.526Z,0.65
2023-03-08T05:39:21.071Z,0.66
2023-03-08T05:40:35.373Z,0.66
2023-03-08T05:41:37.633Z,0.65
2023-03-08T05:42:40.589Z,0.66
2023-03-08T05:43:43.849Z,0.66
2023-03-08T05:44:46.892Z,0.66
2023-03-08T05:45:57.710Z,0.66
2023-03-08T05:47:00.613Z,0.66
2023-03-08T05:48:03.155Z,0.68
2023-03-08T05:49:07.886Z,0.68
2023-03-08T05:50:12.102Z,0.69
2023-03-08T05:51:18.229Z,0.70
2023-03-08T05:52:21.307Z,0.70
2023-03-08T05:53:24.731Z,0.72
2023-03-08T05:54:27.158Z,0.72
2023-03-08T05:55:33.189Z,0.73
2023-03-08T05:56:35.576Z,0.75
2023-03-08T05:57:46.374Z,0.75
2023-03-08T05:58:49.168Z,0.77
2023-03-08T05:59:52.469Z,0.77
2023-03-08T06:00:58.641Z,0.79
2023-03-08T06:02:01.091Z,0.80
2023-03-08T06:03:17.939Z,0.81
2023-03-08T06:04:20.596Z,0.81
2023-03-08T06:05:25.622Z,0.82
2023-03-08T06:06:31.031Z,0.83
2023-03-08T06:07:36.185Z,0.84
2023-03-08T06:08:43.779Z,0.86
2023-03-08T06:09:45.957Z,0.87
2023-03-08T06:10:50.892Z,0.88
2023-03-08T06:11:53.142Z,0.89
2023-03-08T06:12:55.342Z,0.90
2023-03-08T06:13:59.860Z,0.91
2023-03-08T06:15:06.221Z,0.93
2023-03-08T06:16:12.293Z,0.94
2023-03-08T06:17:14.780Z,0.94
2023-03-08T06:18:21.464Z,0.96
2023-03-08T06:19:23.888Z,0.97
2023-03-08T06:20:29.296Z,1.00
2023-03-08T06:21:31.541Z,1.00
2023-03-08T06:22:37.528Z,1.03
2023-03-08T06:23:39.938Z,1.03
2023-03-08T06:24:42.183Z,1.04
2023-03-08T06:25:44.754Z,1.05
2023-03-08T06:26:47.533Z,1.06
2023-03-08T06:27:51.302Z,1.07
2023-03-08T06:29:14.130Z,1.09
2023-03-08T06:30:17.915Z,1.11
2023-03-08T06:31:20.839Z,1.10
2023-03-08T06:32:23.043Z,1.13
2023-03-08T06:33:29.195Z,1.14
2023-03-08T06:34:32.534Z,1.14
2023-03-08T06:35:35.830Z,1.16
2023-03-08T06:36:39.554Z,1.17
2023-03-08T06:37:43.151Z,1.18
2023-03-08T06:38:45.982Z,1.18
2023-03-08T06:39:48.242Z,1.20
2023-03-08T06:40:50.402Z,1.21
2023-03-08T06:41:52.680Z,1.22
2023-03-08T06:42:54.922Z,1.23
2023-03-08T06:43:59.805Z,1.24
2023-03-08T06:45:02.361Z,1.25
2023-03-08T06:46:12.905Z,1.26
2023-03-08T06:47:15.107Z,1.27
2023-03-08T06:48:17.779Z,1.29
2023-03-08T06:49:20.059Z,1.31
2023-03-08T06:50:22.195Z,1.32
2023-03-08T06:51:25.882Z,1.34
2023-03-08T06:52:28.113Z,1.34
2023-03-08T06:53:30.383Z,1.38
2023-03-08T06:54:36.687Z,1.40
2023-03-08T06:55:41.500Z,1.39
2023-03-08T06:56:45.412Z,1.42
2023-03-08T06:57:47.610Z,1.44
2023-03-08T06:58:50.108Z,1.47
2023-03-08T06:59:52.227Z,1.49
2023-03-08T07:00:55.215Z,1.51
2023-03-08T07:01:57.496Z,1.52
2023-03-08T07:03:00.159Z,1.54
2023-03-08T07:04:02.397Z,1.57
2023-03-08T07:05:05.011Z,1.57
2023-03-08T07:06:09.469Z,1.60
2023-03-08T07:07:11.737Z,1.63
2023-03-08T07:08:14.029Z,1.65
2023-03-08T07:09:21.396Z,1.67
2023-03-08T07:10:24.387Z,1.69
2023-03-08T07:11:27.932Z,1.71
2023-03-08T07:12:32.410Z,1.74
2023-03-08T07:13:35.246Z,1.77
2023-03-08T07:14:37.381Z,1.80
2023-03-08T07:15:40.912Z,1.81
2023-03-08T07:16:43.133Z,1.84
2023-03-08T07:17:46.990Z,1.86
2023-03-08T07:18:49.152Z,1.88
2023-03-08T07:19:51.337Z,1.90
2023-03-08T07:20:56.081Z,1.93
2023-03-08T07:21:58.363Z,1.93
2023-03-08T07:23:04.196Z,1.95
2023-03-08T07:24:06.627Z,1.97
2023-03-08T07:25:10.280Z,1.99
2023-03-08T07:26:12.523Z,2.01
2023-03-08T07:27:14.900Z,2.03
2023-03-08T07:28:17.131Z,2.04
2023-03-08T07:29:19.237Z,2.08
2023-03-08T07:30:22.846Z,2.09
2023-03-08T07:31:26.750Z,2.11
2023-03-08T07:32:29.221Z,2.14
2023-03-08T07:33:31.687Z,2.15
2023-03-08T07:34:33.930Z,2.17
2023-03-08T07:35:39.629Z,2.19
2023-03-08T07:36:42.417Z,2.21
2023-03-08T07:37:45.891Z,2.22
2023-03-08T07:38:48.170Z,2.23
2023-03-08T07:39:51.322Z,2.25
2023-03-08T07:40:58.471Z,2.27
2023-03-08T07:42:00.754Z,2.29
2023-03-08T07:43:03.102Z,2.30
2023-03-08T07:44:27.958Z,2.32
2023-03-08T07:45:30.761Z,2.34
2023-03-08T07:46:33.059Z,2.34
2023-03-08T07:47:35.249Z,2.35
2023-03-08T07:48:37.444Z,2.35
2023-03-08T07:49:39.979Z,2.36
2023-03-08T07:50:42.200Z,2.39
2023-03-08T07:51:44.420Z,2.38
2023-03-08T07:52:46.870Z,2.39
2023-03-08T07:53:49.138Z,2.40
2023-03-08T07:54:51.309Z,2.38
2023-03-08T07:55:53.474Z,2.39
2023-03-08T07:56:56.216Z,2.39
2023-03-08T07:58:00.199Z,2.41
2023-03-08T07:59:02.401Z,2.41
2023-03-08T08:00:09.059Z,2.42
2023-03-08T08:01:14.776Z,2.41
2023-03-08T08:02:18.276Z,2.42
2023-03-08T08:03:21.455Z,2.45
2023-03-08T08:04:23.764Z,2.45
2023-03-08T08:05:26.180Z,2.46
2023-03-08T08:06:28.719Z,2.48
2023-03-08T08:07:31.115Z,2.48
2023-03-08T08:08:33.830Z,2.49
2023-03-08T08:09:37.508Z,2.49
2023-03-08T08:10:41.967Z,2.50
2023-03-08T08:11:44.173Z,2.50
2023-03-08T08:12:46.417Z,2.53
2023-03-08T08:13:49.082Z,2.51
2023-03-08T08:14:52.806Z,2.50
2023-03-08T08:16:00.485Z,2.51
2023-03-08T08:17:02.749Z,2.51
2023-03-08T08:18:05.296Z,2.50
2023-03-08T08:19:14.668Z,2.50
2023-03-08T08:20:16.983Z,2.50
2023-03-08T08:21:19.276Z,2.49
2023-03-08T08:22:21.486Z,2.50
2023-03-08T08:23:23.936Z,2.49
2023-03-08T08:24:27.847Z,2.48
2023-03-08T08:25:30.075Z,2.50
2023-03-08T08:26:32.285Z,2.49
2023-03-08T08:27:35.722Z,2.50
2023-03-08T08:28:40.118Z,2.49
2023-03-08T08:29:46.274Z,2.49
2023-03-08T08:31:02.409Z,2.49
2023-03-08T08:32:05.624Z,2.49
2023-03-08T08:33:07.852Z,2.49
2023-03-08T08:34:10.932Z,2.50
2023-03-08T08:35:13.293Z,2.52
2023-03-08T08:36:18.997Z,2.52
2023-03-08T08:37:21.627Z,2.53
2023-03-08T08:38:26.953Z,2.52
2023-03-08T08:39:29.085Z,2.53
2023-03-08T08:40:31.235Z,2.52
2023-03-08T08:41:33.538Z,2.53
2023-03-08T08:42:36.039Z,2.53
2023-03-08T08:43:38.230Z,2.53
2023-03-08T08:44:40.518Z,2.53
2023-03-08T08:45:55.139Z,2.54
2023-03-08T08:46:58.531Z,2.54
2023-03-08T08:48:00.803Z,2.52
2023-03-08T08:49:05.532Z,2.52
2023-03-08T08:50:08.207Z,2.53
2023-03-08T08:51:13.248Z,2.53
2023-03-08T08:52:15.587Z,2.52
2023-03-08T08:53:18.591Z,2.55
2023-03-08T08:54:20.887Z,2.53
2023-03-08T08:55:23.061Z,2.53
2023-03-08T08:56:28.746Z,2.52
2023-03-08T08:57:34.956Z,2.52
2023-03-08T08:58:37.145Z,2.53
2023-03-08T08:59:39.364Z,2.53
2023-03-08T09:00:42.066Z,2.52
2023-03-08T09:01:46.029Z,2.53
2023-03-08T09:02:48.375Z,2.52
2023-03-08T09:03:51.117Z,2.53
2023-03-08T09:04:54.431Z,2.53
2023-03-08T09:05:59.401Z,2.52
2023-03-08T09:07:04.794Z,2.51
2023-03-08T09:08:07.512Z,2.50
2023-03-08T09:09:09.701Z,2.48
2023-03-08T09:10:12.227Z,2.47
2023-03-08T09:11:14.675Z,2.48
2023-03-08T09:12:16.881Z,2.48
2023-03-08T09:13:19.115Z,2.48
2023-03-08T09:14:22.270Z,2.48
2023-03-08T09:15:26.576Z,2.49
2023-03-08T09:16:31.670Z,2.49
2023-03-08T09:17:34.050Z,2.49
2023-03-08T09:18:37.961Z,2.49
2023-03-08T09:19:40.216Z,2.49
2023-03-08T09:20:42.514Z,2.49
2023-03-08T09:21:44.675Z,2.52
2023-03-08T09:22:46.954Z,2.51
2023-03-08T09:23:49.611Z,2.52
2023-03-08T09:24:51.757Z,2.53
2023-03-08T09:25:58.296Z,2.54
2023-03-08T09:27:04.930Z,2.55
2023-03-08T09:28:07.122Z,2.55
2023-03-08T09:29:11.188Z,2.57
2023-03-08T09:30:14.965Z,2.57
2023-03-08T09:31:18.441Z,2.58
2023-03-08T09:32:20.746Z,2.59
2023-03-08T09:33:22.995Z,2.60
2023-03-08T09:34:25.374Z,2.63
2023-03-08T09:35:27.529Z,2.63
2023-03-08T09:36:29.750Z,2.63
2023-03-08T09:37:33.440Z,2.63
2023-03-08T09:38:35.897Z,2.65
2023-03-08T09:39:40.421Z,2.65
2023-03-08T09:40:58.317Z,2.66
2023-03-08T09:42:04.020Z,2.69
2023-03-08T09:43:06.896Z,2.68
2023-03-08T09:44:31.209Z,2.69
2023-03-08T09:45:36.370Z,2.71
2023-03-08T09:46:46.311Z,2.72
2023-03-08T09:48:06.961Z,2.74
2023-03-08T09:49:16.046Z,2.73
2023-03-08T09:50:33.873Z,2.73
2023-03-08T09:51:39.190Z,2.73
2023-03-08T09:53:04.698Z,2.74
2023-03-08T09:54:11.738Z,2.74
2023-03-08T09:55:30.624Z,2.75
2023-03-08T09:57:04.181Z,2.75
2023-03-08T09:58:33.350Z,2.73
2023-03-08T09:59:46.110Z,2.73
2023-03-08T10:00:48.448Z,2.74
2023-03-08T10:01:56.589Z,2.73
2023-03-08T10:03:33.961Z,2.72
2023-03-08T10:04:49.146Z,2.72
2023-03-08T10:06:04.990Z,2.72
2023-03-08T10:07:25.533Z,2.74
2023-03-08T10:08:45.564Z,2.72
2023-03-08T10:10:04.445Z,2.70
2023-03-08T10:11:20.848Z,2.72
2023-03-08T10:12:41.936Z,2.71
2023-03-08T10:13:49.860Z,2.70
2023-03-08T10:15:00.038Z,2.70
2023-03-08T10:16:10.100Z,2.70
2023-03-08T10:17:19.704Z,2.68
2023-03-08T10:18:45.125Z,2.67
2023-03-08T10:19:56.999Z,2.67
2023-03-08T10:21:01.288Z,2.69
2023-03-08T10:22:12.379Z,2.70
2023-03-08T10:23:18.309Z,2.69
2023-03-08T10:24:31.396Z,2.70
2023-03-08T10:25:34.799Z,2.68
2023-03-08T10:26:38.275Z,2.69
2023-03-08T10:27:41.535Z,2.70
2023-03-08T10:28:44.835Z,2.68
2023-03-08T10:29:58.969Z,2.67
2023-03-08T10:31:05.870Z,2.69
2023-03-08T10:32:13.557Z,2.66
2023-03-08T10:33:17.965Z,2.66
2023-03-08T10:34:29.782Z,2.65
2023-03-08T10:35:38.708Z,2.63
2023-03-08T10:36:50.405Z,2.64
2023-03-08T10:37:52.973Z,2.64
2023-03-08T10:38:59.746Z,2.65
2023-03-08T10:40:09.499Z,2.66
2023-03-08T10:41:17.689Z,2.65
2023-03-08T10:42:23.413Z,2.67
2023-03-08T10:43:29.301Z,2.67
2023-03-08T10:44:40.481Z,2.69
2023-03-08T10:45:42.656Z,2.68
2023-03-08T10:46:50.136Z,2.72
2023-03-08T10:47:58.191Z,2.72
2023-03-08T10:49:09.181Z,2.71
2023-03-08T10:50:17.988Z,2.74
2023-03-08T10:51:26.840Z,2.74
2023-03-08T10:52:29.106Z,2.74
2023-03-08T10:53:32.379Z,2.77
2023-03-08T10:54:34.683Z,2.76
2023-03-08T10:55:52.719Z,2.75
2023-03-08T10:57:01.160Z,2.79
2023-03-08T10:58:03.720Z,2.80
2023-03-08T10:59:15.713Z,2.80
2023-03-08T11:00:30.185Z,2.80
2023-03-08T11:01:49.627Z,2.81
2023-03-08T11:03:02.358Z,2.83
2023-03-08T11:04:17.471Z,2.83
2023-03-08T11:05:23.142Z,2.83
2023-03-08T11:06:25.485Z,2.86
2023-03-08T11:07:30.434Z,2.85
2023-03-08T11:08:35.554Z,2.85
2023-03-08T11:09:37.902Z,2.85
2023-03-08T11:10:40.172Z,2.85
2023-03-08T11:11:43.124Z,2.86
2023-03-08T11:12:46.031Z,2.87
2023-03-08T11:13:50.265Z,2.85
2023-03-08T11:14:53.182Z,2.87
2023-03-08T11:16:04.400Z,2.87
2023-03-08T11:17:20.316Z,2.89
2023-03-08T11:18:42.796Z,2.89
2023-03-08T11:19:54.146Z,2.90
2023-03-08T11:21:04.047Z,2.91
2023-03-08T11:22:43.265Z,2.91
2023-03-08T11:24:18.583Z,2.92
2023-03-08T11:25:53.034Z,2.92
2023-03-08T11:27:10.751Z,2.92
2023-03-08T11:28:32.272Z,2.90
2023-03-08T11:29:41.727Z,2.89
2023-03-08T11:31:13.259Z,2.88
2023-03-08T11:32:41.533Z,2.86
2023-03-08T11:34:13.886Z,2.86
2023-03-08T11:35:25.602Z,2.84
2023-03-08T11:37:12.634Z,2.84
2023-03-08T11:38:17.916Z,2.82
2023-03-08T11:39:32.497Z,2.80
2023-03-08T11:40:46.657Z,2.81
2023-03-08T11:42:04.469Z,2.80
2023-03-08T11:43:19.612Z,2.79
2023-03-08T11:44:33.676Z,2.79
2023-03-08T11:45:55.164Z,2.78
2023-03-08T11:47:25.802Z,2.77
2023-03-08T11:48:41.637Z,2.78
2023-03-08T11:49:59.410Z,2.78
2023-03-08T11:51:19.638Z,2.75
2023-03-08T11:52:49.513Z,2.73
2023-03-08T11:54:16.185Z,2.75
2023-03-08T11:55:45.196Z,2.73
2023-03-08T11:56:57.315Z,2.73
2023-03-08T11:58:07.944Z,2.74
2023-03-08T11:59:17.181Z,2.75
2023-03-08T12:00:24.198Z,2.75
2023-03-08T12:01:37.460Z,2.76
2023-03-08T12:02:45.549Z,2.77
2023-03-08T12:03:53.740Z,2.78
2023-03-08T12:05:03.269Z,2.78
2023-03-08T12:06:27.999Z,2.79
2023-03-08T12:07:45.292Z,2.78
2023-03-08T12:08:59.382Z,2.77
2023-03-08T12:10:22.841Z,2.80
2023-03-08T12:11:30.270Z,2.81
2023-03-08T12:12:43.720Z,2.81
2023-03-08T12:13:53.100Z,2.80
2023-03-08T12:15:28.997Z,2.82
2023-03-08T12:16:50.318Z,2.83
2023-03-08T12:17:57.756Z,2.84
2023-03-08T12:19:06.769Z,2.83
2023-03-08T12:20:14.610Z,2.85
2023-03-08T12:21:36.161Z,2.85
2023-03-08T12:23:03.120Z,2.86
2023-03-08T12:24:32.824Z,2.86
2023-03-08T12:25:40.519Z,2.87
2023-03-08T12:26:52.429Z,2.88
2023-03-08T12:28:24.466Z,2.88
2023-03-08T12:29:29.082Z,2.88
2023-03-08T12:31:29.568Z,2.88
2023-03-08T12:32:36.980Z,2.89
2023-03-08T12:33:39.457Z,2.89
2023-03-08T12:34:45.449Z,2.91
2023-03-08T12:36:01.275Z,2.91
2023-03-08T12:37:04.307Z,2.92
2023-03-08T12:38:15.200Z,2.93
2023-03-08T12:39:30.386Z,2.94
2023-03-08T12:40:45.352Z,2.95
2023-03-08T12:41:58.197Z,2.96
2023-03-08T12:43:27.507Z,2.96
2023-03-08T12:44:31.477Z,2.97
2023-03-08T12:45:34.186Z,2.97
2023-03-08T12:47:01.749Z,2.99
2023-03-08T12:48:04.828Z,2.99
2023-03-08T12:49:20.239Z,3.00
2023-03-08T12:50:24.789Z,3.00
2023-03-08T12:51:33.676Z,3.02
2023-03-08T12:52:36.384Z,3.02
2023-03-08T12:53:43.839Z,3.03
2023-03-08T12:55:26.968Z,3.05
2023-03-08T12:56:32.237Z,3.07
2023-03-08T12:57:47.625Z,3.08
2023-03-08T12:58:51.479Z,3.08
2023-03-08T12:59:59.714Z,3.10
2023-03-08T13:01:07.236Z,3.11
2023-03-08T13:02:36.004Z,3.13
2023-03-08T13:03:42.241Z,3.14
2023-03-08T13:04:45.559Z,3.15
2023-03-08T13:05:49.997Z,3.16
2023-03-08T13:06:52.167Z,3.18
2023-03-08T13:08:13.018Z,3.21
2023-03-08T13:09:26.043Z,3.21
2023-03-08T13:10:35.891Z,3.24
2023-03-08T13:11:52.583Z,3.26
2023-03-08T13:13:35.286Z,3.28
2023-03-08T13:14:43.701Z,3.31
2023-03-08T13:15:46.001Z,3.31
2023-03-08T13:16:48.258Z,3.33
2023-03-08T13:18:01.107Z,3.36
2023-03-08T13:19:05.495Z,3.36
2023-03-08T13:20:22.889Z,3.38
2023-03-08T13:21:41.803Z,3.40
2023-03-08T13:23:19.217Z,3.41
2023-03-08T13:24:40.364Z,3.44
2023-03-08T13:26:02.519Z,3.46
2023-03-08T13:27:16.857Z,3.48
2023-03-08T13:28:21.773Z,3.49
2023-03-08T13:29:31.174Z,3.51
2023-03-08T13:30:39.121Z,3.52
2023-03-08T13:31:43.176Z,3.54
2023-03-08T13:32:46.267Z,3.56
2023-03-08T13:33:52.594Z,3.56
2023-03-08T13:35:00.940Z,3.57
2023-03-08T13:36:07.380Z,3.59
2023-03-08T13:37:26.770Z,3.61
2023-03-08T13:38:34.908Z,3.63
2023-03-08T13:39:37.193Z,3.65
2023-03-08T13:40:42.208Z,3.66
2023-03-08T13:41:46.289Z,3.66
2023-03-08T13:43:02.938Z,3.68
2023-03-08T13:44:07.747Z,3.70
2023-03-08T13:45:17.243Z,3.72
2023-03-08T13:46:20.572Z,3.72
2023-03-08T13:47:26.664Z,3.76
2023-03-08T13:48:32.426Z,3.75
2023-03-08T13:49:36.963Z,3.77
2023-03-08T13:50:44.352Z,3.79
2023-03-08T13:51:50.236Z,3.80
2023-03-08T13:52:52.949Z,3.82
2023-03-08T13:53:55.918Z,3.84
2023-03-08T13:55:02.346Z,3.86
2023-03-08T13:56:06.407Z,3.87
2023-03-08T13:57:21.123Z,3.90
2023-03-08T13:58:26.618Z,3.91
2023-03-08T13:59:29.724Z,3.92
2023-03-08T14:00:34.483Z,3.94
2023-03-08T14:01:47.819Z,3.96
2023-03-08T14:02:51.117Z,3.97
2023-03-08T14:03:55.538Z,3.98
2023-03-08T14:04:58.662Z,4.01
2023-03-08T14:06:00.974Z,4.01
2023-03-08T14:07:04.816Z,4.02
2023-03-08T14:08:18.029Z,4.06
2023-03-08T14:09:21.023Z,4.06
2023-03-08T14:10:29.847Z,4.07
2023-03-08T14:11:35.240Z,4.08
2023-03-08T14:12:37.498Z,4.11
2023-03-08T14:13:41.702Z,4.11
2023-03-08T14:14:46.983Z,4.10
2023-03-08T14:16:00.464Z,4.13
2023-03-08T14:17:03.469Z,4.12
2023-03-08T14:18:08.501Z,4.13
2023-03-08T14:19:23.979Z,4.14
2023-03-08T14:20:26.765Z,4.16
2023-03-08T14:21:30.391Z,4.17
2023-03-08T14:22:39.943Z,4.18
2023-03-08T14:23:54.787Z,4.20
2023-03-08T14:25:03.384Z,4.21
2023-03-08T14:26:05.984Z,4.21
2023-03-08T14:27:13.937Z,4.23
2023-03-08T14:28:40.786Z,4.24
2023-03-08T14:29:44.891Z,4.25
2023-03-08T14:30:49.081Z,4.25
2023-03-08T14:31:58.186Z,4.27
2023-03-08T14:33:22.029Z,4.29
2023-03-08T14:34:39.486Z,4.29
2023-03-08T14:35:52.148Z,4.31
2023-03-08T14:37:01.830Z,4.32
2023-03-08T14:38:18.080Z,4.32
2023-03-08T14:39:20.918Z,4.32
2023-03-08T14:40:28.585Z,4.33
2023-03-08T14:41:36.370Z,4.33
2023-03-08T14:42:49.011Z,4.34
2023-03-08T14:43:51.402Z,4.35
2023-03-08T14:44:59.668Z,4.36
2023-03-08T14:46:07.181Z,4.37
2023-03-08T14:47:20.304Z,4.36
2023-03-08T14:48:30.933Z,4.39